LFTH

Toulon-Hyères Airport

Airport
ICAO code
LFTH
IATA Code
TLN
Summary
ICAO Region
EUR
ICAO Territory
Location

, Provence-Alpes-Cote d'Azur

Serving
Hyeres
Elevation
7 ft
Coordinates
43° 5' 50" N , 6° 8' 46" E
Metar
LFTH 241200Z AUTO 23009KT 190V260 CAVOK 13/04 Q1007 TEMPO SHRA SCT050CB

Runways

Designator Length Width Surface Rops
14/32 1900 50 ASP Yes/Yes
5/23 2120 45 ASP Yes/Yes

Airport map

Aerial View

SKYbrary Partners:

Safety knowledge contributed by: